sensor_id;sensor_type;location;lat;lon;timestamp;temperature;humidity
55135;DHT22;41031;44.750;11.308;2023-09-19T00:00:44;22.10;94.70
55135;DHT22;41031;44.750;11.308;2023-09-19T00:03:14;22.00;94.80
55135;DHT22;41031;44.750;11.308;2023-09-19T00:05:42;22.10;94.90
55135;DHT22;41031;44.750;11.308;2023-09-19T00:08:13;22.10;94.80
55135;DHT22;41031;44.750;11.308;2023-09-19T00:10:40;22.10;94.70
55135;DHT22;41031;44.750;11.308;2023-09-19T00:13:09;22.10;94.70
55135;DHT22;41031;44.750;11.308;2023-09-19T00:15:46;22.10;94.70
55135;DHT22;41031;44.750;11.308;2023-09-19T00:18:20;22.10;94.70
55135;DHT22;41031;44.750;11.308;2023-09-19T00:20:58;22.10;94.70
55135;DHT22;41031;44.750;11.308;2023-09-19T00:23:25;22.10;94.80
55135;DHT22;41031;44.750;11.308;2023-09-19T00:25:52;22.00;94.70
55135;DHT22;41031;44.750;11.308;2023-09-19T00:28:24;22.10;94.70
55135;DHT22;41031;44.750;11.308;2023-09-19T00:30:51;22.00;94.70
55135;DHT22;41031;44.750;11.308;2023-09-19T00:33:19;22.00;94.80
55135;DHT22;41031;44.750;11.308;2023-09-19T00:35:54;21.90;94.80
55135;DHT22;41031;44.750;11.308;2023-09-19T00:38:21;22.00;94.90
55135;DHT22;41031;44.750;11.308;2023-09-19T00:40:51;21.90;94.90
55135;DHT22;41031;44.750;11.308;2023-09-19T00:43:18;21.90;94.90
55135;DHT22;41031;44.750;11.308;2023-09-19T00:45:48;21.80;95.00
55135;DHT22;41031;44.750;11.308;2023-09-19T00:48:16;21.90;95.00
55135;DHT22;41031;44.750;11.308;2023-09-19T00:50:46;21.80;95.10
55135;DHT22;41031;44.750;11.308;2023-09-19T00:53:18;21.80;95.10
55135;DHT22;41031;44.750;11.308;2023-09-19T00:55:46;21.80;95.10
55135;DHT22;41031;44.750;11.308;2023-09-19T00:58:14;21.70;95.10
55135;DHT22;41031;44.750;11.308;2023-09-19T01:00:42;21.70;95.20
55135;DHT22;41031;44.750;11.308;2023-09-19T01:03:11;21.60;95.30
55135;DHT22;41031;44.750;11.308;2023-09-19T01:05:40;21.60;95.40
55135;DHT22;41031;44.750;11.308;2023-09-19T01:08:07;21.60;95.50
55135;DHT22;41031;44.750;11.308;2023-09-19T01:10:35;21.60;95.50
55135;DHT22;41031;44.750;11.308;2023-09-19T01:19:06;21.60;95.60
55135;DHT22;41031;44.750;11.308;2023-09-19T01:29:49;21.50;95.60
55135;DHT22;41031;44.750;11.308;2023-09-19T01:32:21;21.50;95.50
55135;DHT22;41031;44.750;11.308;2023-09-19T01:34:55;21.40;95.60
55135;DHT22;41031;44.750;11.308;2023-09-19T01:37:25;21.40;95.60
55135;DHT22;41031;44.750;11.308;2023-09-19T01:40:02;21.40;95.70
55135;DHT22;41031;44.750;11.308;2023-09-19T01:42:54;21.40;95.80
55135;DHT22;41031;44.750;11.308;2023-09-19T01:51:05;21.30;95.90
55135;DHT22;41031;44.750;11.308;2023-09-19T01:56:16;21.30;96.00
55135;DHT22;41031;44.750;11.308;2023-09-19T01:58:53;21.30;96.00
55135;DHT22;41031;44.750;11.308;2023-09-19T02:01:22;21.30;95.90
55135;DHT22;41031;44.750;11.308;2023-09-19T02:03:51;21.30;95.90
55135;DHT22;41031;44.750;11.308;2023-09-19T02:06:18;21.30;96.00
55135;DHT22;41031;44.750;11.308;2023-09-19T02:08:46;21.30;96.00
55135;DHT22;41031;44.750;11.308;2023-09-19T02:11:14;21.20;96.00
55135;DHT22;41031;44.750;11.308;2023-09-19T02:13:42;21.30;96.10
55135;DHT22;41031;44.750;11.308;2023-09-19T02:16:11;21.20;96.10
55135;DHT22;41031;44.750;11.308;2023-09-19T02:18:39;21.20;96.00
55135;DHT22;41031;44.750;11.308;2023-09-19T02:21:06;21.20;96.00
55135;DHT22;41031;44.750;11.308;2023-09-19T02:23:33;21.20;95.90
55135;DHT22;41031;44.750;11.308;2023-09-19T02:26:00;21.20;96.00
55135;DHT22;41031;44.750;11.308;2023-09-19T02:28:27;21.20;96.00
55135;DHT22;41031;44.750;11.308;2023-09-19T02:30:59;21.20;96.10
55135;DHT22;41031;44.750;11.308;2023-09-19T02:33:26;21.20;96.20
55135;DHT22;41031;44.750;11.308;2023-09-19T02:35:56;21.10;96.20
55135;DHT22;41031;44.750;11.308;2023-09-19T02:38:27;21.10;96.20
55135;DHT22;41031;44.750;11.308;2023-09-19T02:40:56;21.10;96.30
55135;DHT22;41031;44.750;11.308;2023-09-19T02:43:23;21.10;96.30
55135;DHT22;41031;44.750;11.308;2023-09-19T02:45:50;21.10;96.20
55135;DHT22;41031;44.750;11.308;2023-09-19T02:48:20;21.10;96.20
55135;DHT22;41031;44.750;11.308;2023-09-19T02:50:50;21.10;96.10
55135;DHT22;41031;44.750;11.308;2023-09-19T02:53:18;21.10;96.00
55135;DHT22;41031;44.750;11.308;2023-09-19T02:55:46;21.10;96.00
55135;DHT22;41031;44.750;11.308;2023-09-19T02:58:14;21.10;96.00
55135;DHT22;41031;44.750;11.308;2023-09-19T03:00:42;21.10;96.00
55135;DHT22;41031;44.750;11.308;2023-09-19T03:03:09;21.10;96.00
55135;DHT22;41031;44.750;11.308;2023-09-19T03:05:36;21.10;96.00
55135;DHT22;41031;44.750;11.308;2023-09-19T03:08:05;21.10;96.00
55135;DHT22;41031;44.750;11.308;2023-09-19T03:10:33;21.10;96.00
55135;DHT22;41031;44.750;11.308;2023-09-19T03:13:01;21.10;96.00
55135;DHT22;41031;44.750;11.308;2023-09-19T03:15:29;21.10;96.00
55135;DHT22;41031;44.750;11.308;2023-09-19T03:17:56;21.10;95.90
55135;DHT22;41031;44.750;11.308;2023-09-19T03:20:24;21.10;95.80
55135;DHT22;41031;44.750;11.308;2023-09-19T03:22:52;21.10;95.70
55135;DHT22;41031;44.750;11.308;2023-09-19T03:25:20;21.10;95.60
55135;DHT22;41031;44.750;11.308;2023-09-19T03:27:50;21.10;95.70
55135;DHT22;41031;44.750;11.308;2023-09-19T03:30:18;21.10;95.70
55135;DHT22;41031;44.750;11.308;2023-09-19T03:32:46;21.00;95.80
55135;DHT22;41031;44.750;11.308;2023-09-19T03:35:14;21.00;95.90
55135;DHT22;41031;44.750;11.308;2023-09-19T03:37:42;21.00;95.90
55135;DHT22;41031;44.750;11.308;2023-09-19T03:40:10;21.00;96.00
55135;DHT22;41031;44.750;11.308;2023-09-19T03:42:38;21.00;96.30
55135;DHT22;41031;44.750;11.308;2023-09-19T03:45:10;21.00;96.00
55135;DHT22;41031;44.750;11.308;2023-09-19T03:47:44;21.00;95.90
55135;DHT22;41031;44.750;11.308;2023-09-19T03:50:16;20.90;95.80
55135;DHT22;41031;44.750;11.308;2023-09-19T03:52:45;20.90;95.80
55135;DHT22;41031;44.750;11.308;2023-09-19T03:55:12;20.90;95.80
55135;DHT22;41031;44.750;11.308;2023-09-19T03:57:40;20.90;95.90
55135;DHT22;41031;44.750;11.308;2023-09-19T04:00:08;20.90;96.00
55135;DHT22;41031;44.750;11.308;2023-09-19T04:02:40;20.80;95.90
55135;DHT22;41031;44.750;11.308;2023-09-19T04:05:07;20.80;95.90
55135;DHT22;41031;44.750;11.308;2023-09-19T04:07:35;20.80;96.00
55135;DHT22;41031;44.750;11.308;2023-09-19T04:10:03;20.80;96.00
55135;DHT22;41031;44.750;11.308;2023-09-19T04:12:30;20.80;96.00
55135;DHT22;41031;44.750;11.308;2023-09-19T04:14:57;20.80;96.10
55135;DHT22;41031;44.750;11.308;2023-09-19T04:17:24;20.80;96.10
55135;DHT22;41031;44.750;11.308;2023-09-19T04:19:51;20.70;96.10
55135;DHT22;41031;44.750;11.308;2023-09-19T04:22:18;20.80;96.10
55135;DHT22;41031;44.750;11.308;2023-09-19T04:24:46;20.70;96.10
55135;DHT22;41031;44.750;11.308;2023-09-19T04:27:13;20.70;96.20
55135;DHT22;41031;44.750;11.308;2023-09-19T04:29:42;20.60;96.20
55135;DHT22;41031;44.750;11.308;2023-09-19T04:32:09;20.60;96.30
55135;DHT22;41031;44.750;11.308;2023-09-19T04:34:36;20.60;96.30
55135;DHT22;41031;44.750;11.308;2023-09-19T04:37:05;20.60;96.40
55135;DHT22;41031;44.750;11.308;2023-09-19T04:39:32;20.60;96.40
55135;DHT22;41031;44.750;11.308;2023-09-19T04:42:01;20.60;96.40
55135;DHT22;41031;44.750;11.308;2023-09-19T04:44:27;20.60;96.50
55135;DHT22;41031;44.750;11.308;2023-09-19T04:46:55;20.60;96.50
55135;DHT22;41031;44.750;11.308;2023-09-19T04:49:23;20.60;96.50
55135;DHT22;41031;44.750;11.308;2023-09-19T04:51:50;20.60;96.50
55135;DHT22;41031;44.750;11.308;2023-09-19T04:54:17;20.60;96.60
55135;DHT22;41031;44.750;11.308;2023-09-19T04:56:44;20.50;96.50
55135;DHT22;41031;44.750;11.308;2023-09-19T04:59:11;20.50;96.50
55135;DHT22;41031;44.750;11.308;2023-09-19T05:01:39;20.50;96.50
55135;DHT22;41031;44.750;11.308;2023-09-19T05:04:06;20.50;96.60
55135;DHT22;41031;44.750;11.308;2023-09-19T05:06:33;20.50;96.60
55135;DHT22;41031;44.750;11.308;2023-09-19T05:09:02;20.50;96.60
55135;DHT22;41031;44.750;11.308;2023-09-19T05:11:32;20.60;96.60
55135;DHT22;41031;44.750;11.308;2023-09-19T05:14:00;20.60;96.70
55135;DHT22;41031;44.750;11.308;2023-09-19T05:16:30;20.60;96.70
55135;DHT22;41031;44.750;11.308;2023-09-19T05:19:01;20.50;96.70
55135;DHT22;41031;44.750;11.308;2023-09-19T05:21:30;20.60;96.70
55135;DHT22;41031;44.750;11.308;2023-09-19T05:23:57;20.60;96.70
55135;DHT22;41031;44.750;11.308;2023-09-19T05:26:24;20.60;96.70
55135;DHT22;41031;44.750;11.308;2023-09-19T05:28:51;20.60;96.70
55135;DHT22;41031;44.750;11.308;2023-09-19T05:31:19;20.70;96.80
55135;DHT22;41031;44.750;11.308;2023-09-19T05:33:47;20.70;96.80
55135;DHT22;41031;44.750;11.308;2023-09-19T05:36:14;20.70;96.80
55135;DHT22;41031;44.750;11.308;2023-09-19T05:38:43;20.80;96.80
55135;DHT22;41031;44.750;11.308;2023-09-19T05:41:11;20.80;96.80
55135;DHT22;41031;44.750;11.308;2023-09-19T05:43:40;20.80;96.80
55135;DHT22;41031;44.750;11.308;2023-09-19T05:46:08;20.90;96.70
55135;DHT22;41031;44.750;11.308;2023-09-19T05:48:35;21.00;96.60
55135;DHT22;41031;44.750;11.308;2023-09-19T05:51:02;21.10;96.50
55135;DHT22;41031;44.750;11.308;2023-09-19T05:53:29;21.30;96.50
55135;DHT22;41031;44.750;11.308;2023-09-19T05:55:57;21.70;96.20
55135;DHT22;41031;44.750;11.308;2023-09-19T05:58:24;22.20;95.50
55135;DHT22;41031;44.750;11.308;2023-09-19T06:00:51;22.60;94.40
55135;DHT22;41031;44.750;11.308;2023-09-19T06:03:18;22.90;93.70
55135;DHT22;41031;44.750;11.308;2023-09-19T06:05:47;22.90;93.50
55135;DHT22;41031;44.750;11.308;2023-09-19T06:08:16;22.90;93.40
55135;DHT22;41031;44.750;11.308;2023-09-19T06:10:43;22.80;93.60
55135;DHT22;41031;44.750;11.308;2023-09-19T06:13:10;22.70;93.80
55135;DHT22;41031;44.750;11.308;2023-09-19T06:15:37;22.70;94.00
55135;DHT22;41031;44.750;11.308;2023-09-19T06:18:11;22.60;94.30
55135;DHT22;41031;44.750;11.308;2023-09-19T06:20:40;22.60;94.50
55135;DHT22;41031;44.750;11.308;2023-09-19T06:23:11;22.60;94.60
55135;DHT22;41031;44.750;11.308;2023-09-19T06:25:38;22.70;94.60
55135;DHT22;41031;44.750;11.308;2023-09-19T06:28:06;22.80;94.40
55135;DHT22;41031;44.750;11.308;2023-09-19T06:30:35;22.80;94.40
55135;DHT22;41031;44.750;11.308;2023-09-19T06:33:02;22.90;94.40
55135;DHT22;41031;44.750;11.308;2023-09-19T06:35:32;23.00;94.30
55135;DHT22;41031;44.750;11.308;2023-09-19T06:38:03;23.10;94.10
55135;DHT22;41031;44.750;11.308;2023-09-19T06:40:31;23.10;94.00
55135;DHT22;41031;44.750;11.308;2023-09-19T06:42:58;23.20;93.90
55135;DHT22;41031;44.750;11.308;2023-09-19T06:45:25;23.30;93.70
55135;DHT22;41031;44.750;11.308;2023-09-19T06:47:54;23.30;93.60
55135;DHT22;41031;44.750;11.308;2023-09-19T06:50:25;23.20;93.60
55135;DHT22;41031;44.750;11.308;2023-09-19T06:52:53;23.20;93.50
55135;DHT22;41031;44.750;11.308;2023-09-19T06:55:22;23.20;93.60
55135;DHT22;41031;44.750;11.308;2023-09-19T06:57:55;23.30;93.70
55135;DHT22;41031;44.750;11.308;2023-09-19T07:00:23;23.30;93.50
55135;DHT22;41031;44.750;11.308;2023-09-19T07:05:32;23.20;93.30
55135;DHT22;41031;44.750;11.308;2023-09-19T07:07:59;23.20;93.40
55135;DHT22;41031;44.750;11.308;2023-09-19T07:10:28;23.20;93.50
55135;DHT22;41031;44.750;11.308;2023-09-19T07:12:59;23.20;93.60
55135;DHT22;41031;44.750;11.308;2023-09-19T07:15:27;23.30;93.60
55135;DHT22;41031;44.750;11.308;2023-09-19T07:17:54;23.30;93.50
55135;DHT22;41031;44.750;11.308;2023-09-19T07:20:24;23.30;93.50
55135;DHT22;41031;44.750;11.308;2023-09-19T07:22:55;23.40;93.60
55135;DHT22;41031;44.750;11.308;2023-09-19T07:25:22;23.40;93.70
55135;DHT22;41031;44.750;11.308;2023-09-19T07:27:49;23.50;93.70
55135;DHT22;41031;44.750;11.308;2023-09-19T07:30:18;23.60;93.80
55135;DHT22;41031;44.750;11.308;2023-09-19T07:32:45;23.80;93.70
55135;DHT22;41031;44.750;11.308;2023-09-19T07:35:12;23.80;93.60
55135;DHT22;41031;44.750;11.308;2023-09-19T07:37:39;23.90;93.40
55135;DHT22;41031;44.750;11.308;2023-09-19T07:40:06;24.10;93.40
55135;DHT22;41031;44.750;11.308;2023-09-19T07:42:34;24.20;93.20
55135;DHT22;41031;44.750;11.308;2023-09-19T07:45:02;24.30;93.10
55135;DHT22;41031;44.750;11.308;2023-09-19T07:47:29;24.40;93.10
55135;DHT22;41031;44.750;11.308;2023-09-19T07:49:58;24.60;93.10
55135;DHT22;41031;44.750;11.308;2023-09-19T07:52:25;24.90;92.80
55135;DHT22;41031;44.750;11.308;2023-09-19T07:54:54;25.10;92.20
55135;DHT22;41031;44.750;11.308;2023-09-19T07:57:21;25.30;91.90
55135;DHT22;41031;44.750;11.308;2023-09-19T07:59:48;25.50;91.70
55135;DHT22;41031;44.750;11.308;2023-09-19T08:02:16;25.70;91.40
55135;DHT22;41031;44.750;11.308;2023-09-19T08:04:43;25.90;91.20
55135;DHT22;41031;44.750;11.308;2023-09-19T08:07:13;26.10;90.90
55135;DHT22;41031;44.750;11.308;2023-09-19T08:09:40;26.30;90.60
55135;DHT22;41031;44.750;11.308;2023-09-19T08:12:07;26.50;90.30
55135;DHT22;41031;44.750;11.308;2023-09-19T08:14:38;26.70;90.10
55135;DHT22;41031;44.750;11.308;2023-09-19T08:17:08;26.90;89.60
55135;DHT22;41031;44.750;11.308;2023-09-19T08:19:35;27.10;88.80
55135;DHT22;41031;44.750;11.308;2023-09-19T08:22:03;27.20;88.30
55135;DHT22;41031;44.750;11.308;2023-09-19T08:24:30;27.40;88.00
55135;DHT22;41031;44.750;11.308;2023-09-19T08:26:57;27.60;87.20
55135;DHT22;41031;44.750;11.308;2023-09-19T08:29:25;27.70;86.40
55135;DHT22;41031;44.750;11.308;2023-09-19T08:31:55;27.90;85.70
55135;DHT22;41031;44.750;11.308;2023-09-19T08:34:23;28.00;85.10
55135;DHT22;41031;44.750;11.308;2023-09-19T08:36:52;28.10;84.70
55135;DHT22;41031;44.750;11.308;2023-09-19T08:39:25;28.20;84.20
55135;DHT22;41031;44.750;11.308;2023-09-19T08:41:59;28.40;83.80
55135;DHT22;41031;44.750;11.308;2023-09-19T08:44:27;28.50;83.30
55135;DHT22;41031;44.750;11.308;2023-09-19T08:47:15;28.70;82.80
55135;DHT22;41031;44.750;11.308;2023-09-19T08:52:42;29.00;81.50
55135;DHT22;41031;44.750;11.308;2023-09-19T08:55:14;29.00;80.40
55135;DHT22;41031;44.750;11.308;2023-09-19T08:57:49;29.00;80.70
55135;DHT22;41031;44.750;11.308;2023-09-19T09:00:17;28.90;80.10
55135;DHT22;41031;44.750;11.308;2023-09-19T09:02:45;28.80;80.00
55135;DHT22;41031;44.750;11.308;2023-09-19T09:05:14;28.70;80.30
55135;DHT22;41031;44.750;11.308;2023-09-19T09:07:43;28.70;81.10
55135;DHT22;41031;44.750;11.308;2023-09-19T09:10:11;28.80;79.90
55135;DHT22;41031;44.750;11.308;2023-09-19T09:12:39;28.90;79.90
55135;DHT22;41031;44.750;11.308;2023-09-19T09:15:08;28.90;78.70
55135;DHT22;41031;44.750;11.308;2023-09-19T09:17:38;29.00;78.90
55135;DHT22;41031;44.750;11.308;2023-09-19T09:20:06;29.10;78.70
55135;DHT22;41031;44.750;11.308;2023-09-19T09:22:35;29.20;78.40
55135;DHT22;41031;44.750;11.308;2023-09-19T09:25:03;29.10;78.20
55135;DHT22;41031;44.750;11.308;2023-09-19T09:27:31;29.10;78.30
55135;DHT22;41031;44.750;11.308;2023-09-19T09:29:59;29.20;78.40
55135;DHT22;41031;44.750;11.308;2023-09-19T09:32:30;29.20;77.90
55135;DHT22;41031;44.750;11.308;2023-09-19T09:35:03;29.30;78.10
55135;DHT22;41031;44.750;11.308;2023-09-19T09:37:36;29.40;77.40
55135;DHT22;41031;44.750;11.308;2023-09-19T09:40:06;29.50;76.70
55135;DHT22;41031;44.750;11.308;2023-09-19T09:42:41;29.60;76.20
55135;DHT22;41031;44.750;11.308;2023-09-19T09:45:22;29.60;75.80
55135;DHT22;41031;44.750;11.308;2023-09-19T09:48:05;29.70;75.50
55135;DHT22;41031;44.750;11.308;2023-09-19T09:50:48;29.70;74.80
55135;DHT22;41031;44.750;11.308;2023-09-19T09:53:26;29.80;74.10
55135;DHT22;41031;44.750;11.308;2023-09-19T09:55:58;29.80;73.70
55135;DHT22;41031;44.750;11.308;2023-09-19T09:58:52;29.90;74.10
55135;DHT22;41031;44.750;11.308;2023-09-19T10:01:22;30.00;73.20
55135;DHT22;41031;44.750;11.308;2023-09-19T10:03:59;30.00;73.20
55135;DHT22;41031;44.750;11.308;2023-09-19T10:06:40;30.00;73.10
55135;DHT22;41031;44.750;11.308;2023-09-19T10:09:14;30.00;73.10
55135;DHT22;41031;44.750;11.308;2023-09-19T10:11:48;30.00;72.50
55135;DHT22;41031;44.750;11.308;2023-09-19T10:14:30;30.00;72.50
55135;DHT22;41031;44.750;11.308;2023-09-19T10:16:59;30.00;72.00
55135;DHT22;41031;44.750;11.308;2023-09-19T10:19:44;30.00;72.30
55135;DHT22;41031;44.750;11.308;2023-09-19T10:22:14;30.10;72.40
55135;DHT22;41031;44.750;11.308;2023-09-19T10:24:43;30.20;72.20
55135;DHT22;41031;44.750;11.308;2023-09-19T10:27:29;30.20;71.20
55135;DHT22;41031;44.750;11.308;2023-09-19T10:30:08;30.30;70.00
55135;DHT22;41031;44.750;11.308;2023-09-19T10:32:40;30.30;70.10
55135;DHT22;41031;44.750;11.308;2023-09-19T10:35:08;30.30;70.80
55135;DHT22;41031;44.750;11.308;2023-09-19T10:37:39;30.20;70.70
55135;DHT22;41031;44.750;11.308;2023-09-19T10:40:08;30.30;70.80
55135;DHT22;41031;44.750;11.308;2023-09-19T10:42:38;30.30;70.00
55135;DHT22;41031;44.750;11.308;2023-09-19T10:45:06;30.30;70.20
55135;DHT22;41031;44.750;11.308;2023-09-19T10:47:40;30.40;69.40
55135;DHT22;41031;44.750;11.308;2023-09-19T10:50:07;30.50;69.00
55135;DHT22;41031;44.750;11.308;2023-09-19T10:52:40;30.60;69.50
55135;DHT22;41031;44.750;11.308;2023-09-19T10:55:10;30.60;68.80
55135;DHT22;41031;44.750;11.308;2023-09-19T10:57:44;30.60;69.20
55135;DHT22;41031;44.750;11.308;2023-09-19T11:00:13;30.70;69.20
55135;DHT22;41031;44.750;11.308;2023-09-19T11:05:39;30.60;68.30
55135;DHT22;41031;44.750;11.308;2023-09-19T11:08:08;30.60;68.10
55135;DHT22;41031;44.750;11.308;2023-09-19T11:10:45;30.60;68.00
55135;DHT22;41031;44.750;11.308;2023-09-19T11:13:29;30.70;68.60
55135;DHT22;41031;44.750;11.308;2023-09-19T11:16:04;30.70;68.80
55135;DHT22;41031;44.750;11.308;2023-09-19T11:26:49;31.00;66.80
55135;DHT22;41031;44.750;11.308;2023-09-19T11:29:26;31.00;66.10
55135;DHT22;41031;44.750;11.308;2023-09-19T11:31:54;31.10;66.20
55135;DHT22;41031;44.750;11.308;2023-09-19T11:40:07;31.00;64.90
55135;DHT22;41031;44.750;11.308;2023-09-19T11:42:45;31.00;65.40
55135;DHT22;41031;44.750;11.308;2023-09-19T11:48:25;31.00;65.40
55135;DHT22;41031;44.750;11.308;2023-09-19T11:50:54;31.00;65.40
55135;DHT22;41031;44.750;11.308;2023-09-19T11:53:23;31.10;65.40
55135;DHT22;41031;44.750;11.308;2023-09-19T11:55:51;31.10;64.90
55135;DHT22;41031;44.750;11.308;2023-09-19T11:58:19;31.20;65.10
55135;DHT22;41031;44.750;11.308;2023-09-19T12:00:54;31.20;64.70
55135;DHT22;41031;44.750;11.308;2023-09-19T12:03:29;31.20;63.80
55135;DHT22;41031;44.750;11.308;2023-09-19T12:05:58;31.10;64.40
55135;DHT22;41031;44.750;11.308;2023-09-19T12:08:25;31.20;64.80
55135;DHT22;41031;44.750;11.308;2023-09-19T12:10:53;31.20;64.80
55135;DHT22;41031;44.750;11.308;2023-09-19T12:13:22;31.20;64.60
55135;DHT22;41031;44.750;11.308;2023-09-19T12:15:49;31.20;64.00
55135;DHT22;41031;44.750;11.308;2023-09-19T12:18:29;31.20;64.20
55135;DHT22;41031;44.750;11.308;2023-09-19T12:20:57;31.20;63.60
55135;DHT22;41031;44.750;11.308;2023-09-19T12:23:25;31.20;63.70
55135;DHT22;41031;44.750;11.308;2023-09-19T12:25:55;31.30;63.80
55135;DHT22;41031;44.750;11.308;2023-09-19T12:28:27;31.40;63.50
55135;DHT22;41031;44.750;11.308;2023-09-19T12:31:06;31.40;62.90
55135;DHT22;41031;44.750;11.308;2023-09-19T12:33:34;31.40;63.50
55135;DHT22;41031;44.750;11.308;2023-09-19T12:36:22;31.40;63.70
55135;DHT22;41031;44.750;11.308;2023-09-19T12:38:59;31.40;62.70
55135;DHT22;41031;44.750;11.308;2023-09-19T12:41:26;31.30;62.10
55135;DHT22;41031;44.750;11.308;2023-09-19T12:43:53;31.30;61.60
55135;DHT22;41031;44.750;11.308;2023-09-19T12:46:22;31.40;62.30
55135;DHT22;41031;44.750;11.308;2023-09-19T12:49:16;31.40;62.20
55135;DHT22;41031;44.750;11.308;2023-09-19T12:51:47;31.30;62.40
55135;DHT22;41031;44.750;11.308;2023-09-19T12:54:15;31.30;62.70
55135;DHT22;41031;44.750;11.308;2023-09-19T12:56:46;31.40;62.30
55135;DHT22;41031;44.750;11.308;2023-09-19T12:59:15;31.40;61.90
55135;DHT22;41031;44.750;11.308;2023-09-19T13:01:43;31.40;62.00
55135;DHT22;41031;44.750;11.308;2023-09-19T13:04:18;31.40;62.20
55135;DHT22;41031;44.750;11.308;2023-09-19T13:06:48;31.40;62.20
55135;DHT22;41031;44.750;11.308;2023-09-19T13:09:17;31.40;61.90
55135;DHT22;41031;44.750;11.308;2023-09-19T13:11:44;31.50;61.40
55135;DHT22;41031;44.750;11.308;2023-09-19T13:14:25;31.40;61.10
55135;DHT22;41031;44.750;11.308;2023-09-19T13:17:08;31.30;61.20
55135;DHT22;41031;44.750;11.308;2023-09-19T13:19:47;31.30;60.70
55135;DHT22;41031;44.750;11.308;2023-09-19T13:25:10;31.20;61.00
55135;DHT22;41031;44.750;11.308;2023-09-19T13:27:47;31.20;60.70
55135;DHT22;41031;44.750;11.308;2023-09-19T13:30:22;31.30;60.60
55135;DHT22;41031;44.750;11.308;2023-09-19T13:32:49;31.30;60.20
55135;DHT22;41031;44.750;11.308;2023-09-19T13:35:16;31.30;60.70
55135;DHT22;41031;44.750;11.308;2023-09-19T13:37:44;31.30;61.20
55135;DHT22;41031;44.750;11.308;2023-09-19T13:40:14;31.30;61.20
55135;DHT22;41031;44.750;11.308;2023-09-19T13:42:42;31.40;60.60
55135;DHT22;41031;44.750;11.308;2023-09-19T13:45:09;31.30;59.90
55135;DHT22;41031;44.750;11.308;2023-09-19T13:47:39;31.30;59.60
55135;DHT22;41031;44.750;11.308;2023-09-19T13:50:07;31.20;60.60
55135;DHT22;41031;44.750;11.308;2023-09-19T13:52:35;31.20;61.20
55135;DHT22;41031;44.750;11.308;2023-09-19T13:55:03;31.10;60.70
55135;DHT22;41031;44.750;11.308;2023-09-19T13:57:30;31.00;60.10
55135;DHT22;41031;44.750;11.308;2023-09-19T13:59:57;31.10;60.50
55135;DHT22;41031;44.750;11.308;2023-09-19T14:02:24;31.00;60.10
55135;DHT22;41031;44.750;11.308;2023-09-19T14:04:52;31.00;60.00
55135;DHT22;41031;44.750;11.308;2023-09-19T14:07:19;31.00;59.50
55135;DHT22;41031;44.750;11.308;2023-09-19T14:09:47;30.90;59.50
55135;DHT22;41031;44.750;11.308;2023-09-19T14:12:15;30.90;59.30
55135;DHT22;41031;44.750;11.308;2023-09-19T14:14:42;30.90;59.40
55135;DHT22;41031;44.750;11.308;2023-09-19T14:17:09;30.90;59.30
55135;DHT22;41031;44.750;11.308;2023-09-19T14:19:37;30.90;58.60
55135;DHT22;41031;44.750;11.308;2023-09-19T14:22:04;30.90;59.10
55135;DHT22;41031;44.750;11.308;2023-09-19T14:24:35;30.90;59.40
55135;DHT22;41031;44.750;11.308;2023-09-19T14:27:03;30.90;59.90
55135;DHT22;41031;44.750;11.308;2023-09-19T14:29:32;30.90;60.00
55135;DHT22;41031;44.750;11.308;2023-09-19T14:32:00;31.00;60.00
55135;DHT22;41031;44.750;11.308;2023-09-19T14:34:27;31.00;59.30
55135;DHT22;41031;44.750;11.308;2023-09-19T14:36:54;31.00;59.30
55135;DHT22;41031;44.750;11.308;2023-09-19T14:39:21;30.90;59.30
55135;DHT22;41031;44.750;11.308;2023-09-19T14:41:48;30.90;59.00
55135;DHT22;41031;44.750;11.308;2023-09-19T14:44:16;30.90;59.00
55135;DHT22;41031;44.750;11.308;2023-09-19T14:46:43;30.90;59.40
55135;DHT22;41031;44.750;11.308;2023-09-19T14:49:12;30.80;59.20
55135;DHT22;41031;44.750;11.308;2023-09-19T14:51:39;30.80;59.20
55135;DHT22;41031;44.750;11.308;2023-09-19T14:54:11;30.70;59.70
55135;DHT22;41031;44.750;11.308;2023-09-19T14:56:38;30.70;60.10
55135;DHT22;41031;44.750;11.308;2023-09-19T14:59:07;30.60;59.60
55135;DHT22;41031;44.750;11.308;2023-09-19T15:01:34;30.60;59.60
55135;DHT22;41031;44.750;11.308;2023-09-19T15:04:02;30.60;60.30
55135;DHT22;41031;44.750;11.308;2023-09-19T15:06:29;30.50;59.60
55135;DHT22;41031;44.750;11.308;2023-09-19T15:08:57;30.60;59.30
55135;DHT22;41031;44.750;11.308;2023-09-19T15:11:24;30.50;59.20
55135;DHT22;41031;44.750;11.308;2023-09-19T15:13:52;30.40;59.60
55135;DHT22;41031;44.750;11.308;2023-09-19T15:16:21;30.40;59.60
55135;DHT22;41031;44.750;11.308;2023-09-19T15:18:49;30.30;59.70
55135;DHT22;41031;44.750;11.308;2023-09-19T15:21:16;30.30;60.30
55135;DHT22;41031;44.750;11.308;2023-09-19T15:23:44;30.20;60.40
55135;DHT22;41031;44.750;11.308;2023-09-19T15:26:13;30.20;60.20
55135;DHT22;41031;44.750;11.308;2023-09-19T15:28:40;30.10;60.50
55135;DHT22;41031;44.750;11.308;2023-09-19T15:31:10;30.10;60.40
55135;DHT22;41031;44.750;11.308;2023-09-19T15:33:38;30.00;60.40
55135;DHT22;41031;44.750;11.308;2023-09-19T15:36:10;30.00;60.90
55135;DHT22;41031;44.750;11.308;2023-09-19T15:38:55;29.90;61.00
55135;DHT22;41031;44.750;11.308;2023-09-19T15:43:58;29.80;60.80
55135;DHT22;41031;44.750;11.308;2023-09-19T15:46:33;29.80;60.70
55135;DHT22;41031;44.750;11.308;2023-09-19T15:49:02;29.70;61.10
55135;DHT22;41031;44.750;11.308;2023-09-19T15:51:30;29.70;61.80
55135;DHT22;41031;44.750;11.308;2023-09-19T15:53:57;29.70;62.00
55135;DHT22;41031;44.750;11.308;2023-09-19T15:56:24;29.70;61.60
55135;DHT22;41031;44.750;11.308;2023-09-19T15:58:52;29.60;62.10
55135;DHT22;41031;44.750;11.308;2023-09-19T16:01:21;29.60;61.40
55135;DHT22;41031;44.750;11.308;2023-09-19T16:03:51;29.60;61.40
55135;DHT22;41031;44.750;11.308;2023-09-19T16:06:26;29.50;61.50
55135;DHT22;41031;44.750;11.308;2023-09-19T16:08:56;29.50;62.20
55135;DHT22;41031;44.750;11.308;2023-09-19T16:11:28;29.50;62.70
55135;DHT22;41031;44.750;11.308;2023-09-19T16:13:56;29.40;63.10
55135;DHT22;41031;44.750;11.308;2023-09-19T16:16:24;29.30;63.00
55135;DHT22;41031;44.750;11.308;2023-09-19T16:18:54;29.30;63.40
55135;DHT22;41031;44.750;11.308;2023-09-19T16:21:30;29.30;63.70
55135;DHT22;41031;44.750;11.308;2023-09-19T16:23:59;29.20;64.10